sensor_id;sensor_type;location;lat;lon;timestamp;pressure;altitude;pressure_sealevel;temperature;humidity
82222;BME280;71818;52.352;10.912;2023-11-18T00:01:05;101091.78;;;0.16;100.00
82222;BME280;71818;52.352;10.912;2023-11-18T00:03:30;101090.94;;;0.16;100.00
82222;BME280;71818;52.352;10.912;2023-11-18T00:05:55;101084.84;;;0.14;100.00
82222;BME280;71818;52.352;10.912;2023-11-18T00:08:21;101084.84;;;0.14;100.00
82222;BME280;71818;52.352;10.912;2023-11-18T00:10:46;101076.34;;;0.04;100.00
82222;BME280;71818;52.352;10.912;2023-11-18T00:13:12;101073.91;;;-0.05;100.00
82222;BME280;71818;52.352;10.912;2023-11-18T00:15:38;101070.63;;;-0.18;100.00
82222;BME280;71818;52.352;10.912;2023-11-18T00:18:03;101077.69;;;-0.23;100.00
82222;BME280;71818;52.352;10.912;2023-11-18T00:20:29;101075.22;;;-0.29;100.00
82222;BME280;71818;52.352;10.912;2023-11-18T00:22:56;101079.59;;;-0.33;100.00
82222;BME280;71818;52.352;10.912;2023-11-18T00:25:22;101078.03;;;-0.41;100.00
82222;BME280;71818;52.352;10.912;2023-11-18T00:27:47;101080.72;;;-0.47;100.00
82222;BME280;71818;52.352;10.912;2023-11-18T00:30:13;101085.78;;;-0.38;100.00
82222;BME280;71818;52.352;10.912;2023-11-18T00:32:39;101081.56;;;-0.45;100.00
82222;BME280;71818;52.352;10.912;2023-11-18T00:35:05;101084.25;;;-0.50;100.00
82222;BME280;71818;52.352;10.912;2023-11-18T00:37:31;101078.16;;;-0.50;100.00
82222;BME280;71818;52.352;10.912;2023-11-18T00:39:57;101082.66;;;-0.58;100.00
82222;BME280;71818;52.352;10.912;2023-11-18T00:42:22;101082.72;;;-0.63;100.00
82222;BME280;71818;52.352;10.912;2023-11-18T00:44:48;101081.06;;;-0.69;100.00
82222;BME280;71818;52.352;10.912;2023-11-18T00:47:13;101079.34;;;-0.70;100.00
82222;BME280;71818;52.352;10.912;2023-11-18T00:49:39;101076.72;;;-0.68;100.00
82222;BME280;71818;52.352;10.912;2023-11-18T00:52:05;101084.59;;;-0.71;100.00
82222;BME280;71818;52.352;10.912;2023-11-18T00:54:30;101090.59;;;-0.68;100.00
82222;BME280;71818;52.352;10.912;2023-11-18T00:56:56;101098.44;;;-0.68;100.00
82222;BME280;71818;52.352;10.912;2023-11-18T00:59:21;101095.88;;;-0.71;100.00
82222;BME280;71818;52.352;10.912;2023-11-18T01:01:47;101097.59;;;-0.70;100.00
82222;BME280;71818;52.352;10.912;2023-11-18T01:04:14;101101.84;;;-0.64;100.00
82222;BME280;71818;52.352;10.912;2023-11-18T01:06:39;101108.69;;;-0.55;100.00
82222;BME280;71818;52.352;10.912;2023-11-18T01:09:05;101099.84;;;-0.48;100.00
82222;BME280;71818;52.352;10.912;2023-11-18T01:11:32;101108.94;;;-0.20;100.00
82222;BME280;71818;52.352;10.912;2023-11-18T01:13:58;101103.69;;;-0.17;100.00
82222;BME280;71818;52.352;10.912;2023-11-18T01:16:23;101098.34;;;-0.09;100.00
82222;BME280;71818;52.352;10.912;2023-11-18T01:18:49;101098.97;;;0.04;100.00
82222;BME280;71818;52.352;10.912;2023-11-18T01:21:15;101104.84;;;0.16;100.00
82222;BME280;71818;52.352;10.912;2023-11-18T01:23:42;101102.19;;;0.18;100.00
82222;BME280;71818;52.352;10.912;2023-11-18T01:26:10;101102.03;;;0.25;100.00
82222;BME280;71818;52.352;10.912;2023-11-18T01:28:38;101102.84;;;0.29;100.00
82222;BME280;71818;52.352;10.912;2023-11-18T01:31:08;101106.19;;;0.37;100.00
82222;BME280;71818;52.352;10.912;2023-11-18T01:33:38;101102.59;;;0.41;100.00
82222;BME280;71818;52.352;10.912;2023-11-18T01:36:07;101110.38;;;0.44;100.00
82222;BME280;71818;52.352;10.912;2023-11-18T01:38:34;101106.97;;;0.41;100.00
82222;BME280;71818;52.352;10.912;2023-11-18T01:41:00;101094.84;;;0.38;100.00
82222;BME280;71818;52.352;10.912;2023-11-18T01:43:26;101107.19;;;0.28;100.00
82222;BME280;71818;52.352;10.912;2023-11-18T01:45:52;101114.41;;;0.17;100.00
82222;BME280;71818;52.352;10.912;2023-11-18T01:48:19;101121.75;;;-0.05;100.00
82222;BME280;71818;52.352;10.912;2023-11-18T01:50:45;101131.41;;;-0.10;100.00
82222;BME280;71818;52.352;10.912;2023-11-18T01:53:13;101127.03;;;-0.09;100.00
82222;BME280;71818;52.352;10.912;2023-11-18T01:55:39;101126.41;;;-0.23;100.00
82222;BME280;71818;52.352;10.912;2023-11-18T01:58:05;101129.13;;;-0.29;100.00
82222;BME280;71818;52.352;10.912;2023-11-18T02:00:36;101136.97;;;-0.29;100.00
82222;BME280;71818;52.352;10.912;2023-11-18T02:03:04;101132.44;;;-0.20;100.00
82222;BME280;71818;52.352;10.912;2023-11-18T02:05:30;101134.97;;;-0.14;100.00
82222;BME280;71818;52.352;10.912;2023-11-18T02:08:00;101138.22;;;-0.03;100.00
82222;BME280;71818;52.352;10.912;2023-11-18T02:10:26;101141.59;;;0.06;100.00
82222;BME280;71818;52.352;10.912;2023-11-18T02:15:56;101137.16;;;0.09;100.00
82222;BME280;71818;52.352;10.912;2023-11-18T02:18:29;101137.09;;;0.12;100.00
82222;BME280;71818;52.352;10.912;2023-11-18T02:20:56;101138.72;;;0.19;100.00
82222;BME280;71818;52.352;10.912;2023-11-18T02:23:27;101150.63;;;0.34;100.00
82222;BME280;71818;52.352;10.912;2023-11-18T02:25:53;101141.50;;;0.56;100.00
82222;BME280;71818;52.352;10.912;2023-11-18T02:28:19;101141.19;;;0.72;100.00
82222;BME280;71818;52.352;10.912;2023-11-18T02:30:45;101137.50;;;0.82;100.00
82222;BME280;71818;52.352;10.912;2023-11-18T02:33:17;101139.91;;;0.91;100.00
82222;BME280;71818;52.352;10.912;2023-11-18T02:35:55;101136.34;;;0.95;100.00
82222;BME280;71818;52.352;10.912;2023-11-18T02:38:30;101145.84;;;0.99;100.00
82222;BME280;71818;52.352;10.912;2023-11-18T02:41:06;101144.06;;;1.01;100.00
82222;BME280;71818;52.352;10.912;2023-11-18T02:43:35;101150.97;;;1.04;100.00
82222;BME280;71818;52.352;10.912;2023-11-18T02:46:04;101151.78;;;1.07;100.00
82222;BME280;71818;52.352;10.912;2023-11-18T02:48:30;101155.22;;;1.09;100.00
82222;BME280;71818;52.352;10.912;2023-11-18T02:50:58;101161.28;;;1.11;100.00
82222;BME280;71818;52.352;10.912;2023-11-18T02:53:24;101163.78;;;1.16;100.00
82222;BME280;71818;52.352;10.912;2023-11-18T02:55:50;101160.22;;;1.18;100.00
82222;BME280;71818;52.352;10.912;2023-11-18T02:58:18;101158.41;;;1.22;100.00
82222;BME280;71818;52.352;10.912;2023-11-18T03:00:43;101154.94;;;1.23;100.00
82222;BME280;71818;52.352;10.912;2023-11-18T03:03:09;101150.56;;;1.22;100.00
82222;BME280;71818;52.352;10.912;2023-11-18T03:05:36;101158.34;;;1.25;100.00
82222;BME280;71818;52.352;10.912;2023-11-18T03:08:02;101162.72;;;1.25;100.00
82222;BME280;71818;52.352;10.912;2023-11-18T03:10:31;101157.44;;;1.28;100.00
82222;BME280;71818;52.352;10.912;2023-11-18T03:13:00;101153.91;;;1.29;100.00
82222;BME280;71818;52.352;10.912;2023-11-18T03:15:26;101147.81;;;1.28;100.00
82222;BME280;71818;52.352;10.912;2023-11-18T03:17:52;101151.25;;;1.30;100.00
82222;BME280;71818;52.352;10.912;2023-11-18T03:20:22;101154.78;;;1.29;100.00
82222;BME280;71818;52.352;10.912;2023-11-18T03:22:49;101159.16;;;1.29;100.00
82222;BME280;71818;52.352;10.912;2023-11-18T03:25:15;101159.16;;;1.29;100.00
82222;BME280;71818;52.352;10.912;2023-11-18T03:27:42;101159.06;;;1.32;100.00
82222;BME280;71818;52.352;10.912;2023-11-18T03:30:08;101160.66;;;1.39;100.00
82222;BME280;71818;52.352;10.912;2023-11-18T03:32:38;101157.19;;;1.38;100.00
82222;BME280;71818;52.352;10.912;2023-11-18T03:35:06;101160.66;;;1.39;100.00
82222;BME280;71818;52.352;10.912;2023-11-18T03:37:43;101166.88;;;1.33;100.00
82222;BME280;71818;52.352;10.912;2023-11-18T03:40:10;101166.16;;;1.27;100.00
82222;BME280;71818;52.352;10.912;2023-11-18T03:42:36;101168.00;;;1.22;100.00
82222;BME280;71818;52.352;10.912;2023-11-18T03:45:03;101165.44;;;1.20;100.00
82222;BME280;71818;52.352;10.912;2023-11-18T03:47:28;101171.66;;;1.14;100.00
82222;BME280;71818;52.352;10.912;2023-11-18T03:49:55;101161.25;;;1.13;100.00
82222;BME280;71818;52.352;10.912;2023-11-18T03:52:20;101164.69;;;1.15;100.00
82222;BME280;71818;52.352;10.912;2023-11-18T03:54:46;101169.78;;;1.19;100.00
82222;BME280;71818;52.352;10.912;2023-11-18T03:57:11;101168.91;;;1.20;100.00
82222;BME280;71818;52.352;10.912;2023-11-18T03:59:39;101161.88;;;1.24;100.00
82222;BME280;71818;52.352;10.912;2023-11-18T04:02:04;101157.44;;;1.28;100.00
82222;BME280;71818;52.352;10.912;2023-11-18T04:04:30;101165.25;;;1.29;100.00
82222;BME280;71818;52.352;10.912;2023-11-18T04:06:55;101165.28;;;1.28;100.00
82222;BME280;71818;52.352;10.912;2023-11-18T04:09:21;101162.66;;;1.28;100.00
82222;BME280;71818;52.352;10.912;2023-11-18T04:11:46;101171.31;;;1.30;100.00
82222;BME280;71818;52.352;10.912;2023-11-18T04:14:12;101168.63;;;1.33;100.00
82222;BME280;71818;52.352;10.912;2023-11-18T04:16:37;101172.03;;;1.36;100.00
82222;BME280;71818;52.352;10.912;2023-11-18T04:19:05;101166.72;;;1.41;100.00
82222;BME280;71818;52.352;10.912;2023-11-18T04:21:31;101169.34;;;1.41;100.00
82222;BME280;71818;52.352;10.912;2023-11-18T04:23:57;101168.41;;;1.43;100.00
82222;BME280;71818;52.352;10.912;2023-11-18T04:26:22;101162.31;;;1.43;100.00
82222;BME280;71818;52.352;10.912;2023-11-18T04:28:49;101170.16;;;1.43;100.00
82222;BME280;71818;52.352;10.912;2023-11-18T04:31:15;101170.28;;;1.37;100.00
82222;BME280;71818;52.352;10.912;2023-11-18T04:33:40;101175.50;;;1.38;100.00
82222;BME280;71818;52.352;10.912;2023-11-18T04:36:07;101174.63;;;1.38;100.00
82222;BME280;71818;52.352;10.912;2023-11-18T04:38:35;101177.22;;;1.39;100.00
82222;BME280;71818;52.352;10.912;2023-11-18T04:41:01;101173.72;;;1.40;100.00
82222;BME280;71818;52.352;10.912;2023-11-18T04:43:29;101168.59;;;1.34;100.00
82222;BME280;71818;52.352;10.912;2023-11-18T04:45:55;101165.03;;;1.37;100.00
82222;BME280;71818;52.352;10.912;2023-11-18T04:48:21;101159.81;;;1.37;100.00
82222;BME280;71818;52.352;10.912;2023-11-18T04:50:46;101160.94;;;1.27;100.00
82222;BME280;71818;52.352;10.912;2023-11-18T04:53:12;101175.00;;;1.21;100.00
82222;BME280;71818;52.352;10.912;2023-11-18T04:55:38;101169.78;;;1.19;100.00
82222;BME280;71818;52.352;10.912;2023-11-18T04:58:04;101171.59;;;1.17;100.00
82222;BME280;71818;52.352;10.912;2023-11-18T05:00:34;101167.47;;;1.07;100.00
82222;BME280;71818;52.352;10.912;2023-11-18T05:03:00;101162.44;;;0.98;100.00
82222;BME280;71818;52.352;10.912;2023-11-18T05:05:25;101160.06;;;0.86;100.00
82222;BME280;71818;52.352;10.912;2023-11-18T05:07:51;101154.06;;;0.81;100.00
82222;BME280;71818;52.352;10.912;2023-11-18T05:10:16;101157.81;;;0.68;100.00
82222;BME280;71818;52.352;10.912;2023-11-18T05:12:42;101152.72;;;0.60;100.00
82222;BME280;71818;52.352;10.912;2023-11-18T05:15:09;101156.34;;;0.54;100.00
82222;BME280;71818;52.352;10.912;2023-11-18T05:17:35;101150.41;;;0.46;100.00
82222;BME280;71818;52.352;10.912;2023-11-18T05:20:05;101146.06;;;0.47;100.00
82222;BME280;71818;52.352;10.912;2023-11-18T05:22:34;101142.81;;;0.34;100.00
82222;BME280;71818;52.352;10.912;2023-11-18T05:24:59;101134.34;;;0.21;100.00
82222;BME280;71818;52.352;10.912;2023-11-18T05:27:25;101142.34;;;0.11;100.00
82222;BME280;71818;52.352;10.912;2023-11-18T05:29:51;101135.47;;;0.07;100.00
82222;BME280;71818;52.352;10.912;2023-11-18T05:32:22;101141.69;;;-0.02;100.00
82222;BME280;71818;52.352;10.912;2023-11-18T05:34:49;101140.97;;;-0.09;100.00
82222;BME280;71818;52.352;10.912;2023-11-18T05:37:18;101135.97;;;-0.22;100.00
82222;BME280;71818;52.352;10.912;2023-11-18T05:39:44;101129.13;;;-0.29;100.00
82222;BME280;71818;52.352;10.912;2023-11-18T05:42:11;101130.06;;;-0.35;100.00
82222;BME280;71818;52.352;10.912;2023-11-18T05:44:37;101141.38;;;-0.35;100.00
82222;BME280;71818;52.352;10.912;2023-11-18T05:47:07;101129.38;;;-0.45;100.00
82222;BME280;71818;52.352;10.912;2023-11-18T05:49:35;101123.13;;;-0.36;100.00
82222;BME280;71818;52.352;10.912;2023-11-18T05:52:01;101119.63;;;-0.34;100.00
82222;BME280;71818;52.352;10.912;2023-11-18T05:54:26;101123.19;;;-0.39;100.00
82222;BME280;71818;52.352;10.912;2023-11-18T05:56:53;101112.03;;;-0.49;100.00
82222;BME280;71818;52.352;10.912;2023-11-18T05:59:19;101104.25;;;-0.50;100.00
82222;BME280;71818;52.352;10.912;2023-11-18T06:01:44;101100.84;;;-0.54;100.00
82222;BME280;71818;52.352;10.912;2023-11-18T06:04:10;101113.88;;;-0.54;100.00
82222;BME280;71818;52.352;10.912;2023-11-18T06:06:36;101118.16;;;-0.51;100.00
82222;BME280;71818;52.352;10.912;2023-11-18T06:09:02;101124.34;;;-0.57;100.00
82222;BME280;71818;52.352;10.912;2023-11-18T06:11:34;101123.56;;;-0.64;100.00
82222;BME280;71818;52.352;10.912;2023-11-18T06:14:00;101129.72;;;-0.68;100.00
82222;BME280;71818;52.352;10.912;2023-11-18T06:16:25;101137.63;;;-0.72;100.00
82222;BME280;71818;52.352;10.912;2023-11-18T06:18:56;101139.41;;;-0.76;100.00
82222;BME280;71818;52.352;10.912;2023-11-18T06:21:26;101140.28;;;-0.78;100.00
82222;BME280;71818;52.352;10.912;2023-11-18T06:23:56;101139.47;;;-0.82;100.00
82222;BME280;71818;52.352;10.912;2023-11-18T06:26:23;101132.63;;;-0.87;100.00
82222;BME280;71818;52.352;10.912;2023-11-18T06:28:53;101134.38;;;-0.88;100.00
82222;BME280;71818;52.352;10.912;2023-11-18T06:31:22;101136.81;;;-0.76;100.00
82222;BME280;71818;52.352;10.912;2023-11-18T06:33:49;101120.13;;;-0.66;100.00
82222;BME280;71818;52.352;10.912;2023-11-18T06:38:42;101132.03;;;-0.49;100.00
82222;BME280;71818;52.352;10.912;2023-11-18T06:41:09;101145.94;;;-0.49;100.00
82222;BME280;71818;52.352;10.912;2023-11-18T06:43:38;101146.88;;;-0.53;100.00
82222;BME280;71818;52.352;10.912;2023-11-18T06:46:26;101140.75;;;-0.50;100.00
82222;BME280;71818;52.352;10.912;2023-11-18T06:48:54;101144.19;;;-0.45;100.00
82222;BME280;71818;52.352;10.912;2023-11-18T06:51:21;101153.75;;;-0.47;100.00
82222;BME280;71818;52.352;10.912;2023-11-18T06:53:51;101149.44;;;-0.50;100.00
82222;BME280;71818;52.352;10.912;2023-11-18T06:56:17;101146.81;;;-0.50;100.00
82222;BME280;71818;52.352;10.912;2023-11-18T06:58:43;101147.66;;;-0.48;100.00
82222;BME280;71818;52.352;10.912;2023-11-18T07:01:11;101148.53;;;-0.46;100.00
82222;BME280;71818;52.352;10.912;2023-11-18T07:03:38;101147.66;;;-0.48;100.00
82222;BME280;71818;52.352;10.912;2023-11-18T07:06:04;101149.53;;;-0.54;100.00
82222;BME280;71818;52.352;10.912;2023-11-18T07:08:31;101154.69;;;-0.51;100.00
82222;BME280;71818;52.352;10.912;2023-11-18T07:10:57;101155.22;;;-0.29;100.00
82222;BME280;71818;52.352;10.912;2023-11-18T07:13:22;101149.63;;;-0.07;100.00
82222;BME280;71818;52.352;10.912;2023-11-18T07:15:49;101160.81;;;0.02;100.00
82222;BME280;71818;52.352;10.912;2023-11-18T07:18:15;101158.09;;;0.06;100.00
82222;BME280;71818;52.352;10.912;2023-11-18T07:20:41;101164.91;;;0.13;100.00
82222;BME280;71818;52.352;10.912;2023-11-18T07:23:07;101164.81;;;0.21;100.00
82222;BME280;71818;52.352;10.912;2023-11-18T07:25:34;101165.28;;;0.41;100.00
82222;BME280;71818;52.352;10.912;2023-11-18T07:27:59;101170.38;;;0.49;100.00
82222;BME280;71818;52.352;10.912;2023-11-18T07:30:25;101173.91;;;0.48;100.00
82222;BME280;71818;52.352;10.912;2023-11-18T07:32:51;101184.16;;;0.57;100.00
82222;BME280;71818;52.352;10.912;2023-11-18T07:35:17;101189.19;;;0.68;100.00
82222;BME280;71818;52.352;10.912;2023-11-18T07:37:43;101186.47;;;0.72;100.00
82222;BME280;71818;52.352;10.912;2023-11-18T07:40:09;101189.53;;;0.49;100.00
82222;BME280;71818;52.352;10.912;2023-11-18T07:42:37;101184.31;;;0.49;100.00
82222;BME280;71818;52.352;10.912;2023-11-18T07:45:03;101186.63;;;0.65;100.00
82222;BME280;71818;52.352;10.912;2023-11-18T07:47:32;101185.50;;;0.78;100.00
82222;BME280;71818;52.352;10.912;2023-11-18T07:49:59;101190.53;;;0.87;100.00
82222;BME280;71818;52.352;10.912;2023-11-18T07:52:25;101181.47;;;1.03;100.00
82222;BME280;71818;52.352;10.912;2023-11-18T07:54:53;101187.22;;;1.20;100.00
82222;BME280;71818;52.352;10.912;2023-11-18T07:57:18;101182.47;;;1.39;100.00
82222;BME280;71818;52.352;10.912;2023-11-18T07:59:43;101181.22;;;1.56;100.00
82222;BME280;71818;52.352;10.912;2023-11-18T08:02:09;101184.28;;;1.73;100.00
82222;BME280;71818;52.352;10.912;2023-11-18T08:04:36;101181.25;;;3.18;100.00
82222;BME280;71818;52.352;10.912;2023-11-18T08:07:02;101187.19;;;3.25;100.00
82222;BME280;71818;52.352;10.912;2023-11-18T08:09:30;101180.59;;;3.96;100.00
82222;BME280;71818;52.352;10.912;2023-11-18T08:11:56;101181.13;;;3.79;100.00
82222;BME280;71818;52.352;10.912;2023-11-18T08:14:22;101185.34;;;3.56;100.00
82222;BME280;71818;52.352;10.912;2023-11-18T08:16:48;101184.03;;;3.71;100.00
82222;BME280;71818;52.352;10.912;2023-11-18T08:19:15;101192.75;;;3.98;100.00
82222;BME280;71818;52.352;10.912;2023-11-18T08:21:40;101200.19;;;3.57;100.00
82222;BME280;71818;52.352;10.912;2023-11-18T08:24:07;101212.53;;;3.55;100.00
82222;BME280;71818;52.352;10.912;2023-11-18T08:26:34;101197.59;;;3.28;100.00
82222;BME280;71818;52.352;10.912;2023-11-18T08:29:00;101205.38;;;3.02;100.00
82222;BME280;71818;52.352;10.912;2023-11-18T08:31:26;101199.13;;;3.06;100.00
82222;BME280;71818;52.352;10.912;2023-11-18T08:33:52;101203.50;;;3.07;100.00
82222;BME280;71818;52.352;10.912;2023-11-18T08:36:20;101202.69;;;3.03;100.00
82222;BME280;71818;52.352;10.912;2023-11-18T08:38:45;101187.56;;;3.13;100.00
82222;BME280;71818;52.352;10.912;2023-11-18T08:41:12;101196.31;;;3.41;100.00
82222;BME280;71818;52.352;10.912;2023-11-18T08:43:37;101188.66;;;3.04;100.00
82222;BME280;71818;52.352;10.912;2023-11-18T08:46:06;101182.81;;;2.96;100.00
82222;BME280;71818;52.352;10.912;2023-11-18T08:48:32;101177.50;;;2.97;100.00
82222;BME280;71818;52.352;10.912;2023-11-18T08:50:59;101174.16;;;2.92;100.00
82222;BME280;71818;52.352;10.912;2023-11-18T08:53:27;101167.72;;;3.03;100.00
82222;BME280;71818;52.352;10.912;2023-11-18T08:55:53;101161.41;;;3.39;100.00
82222;BME280;71818;52.352;10.912;2023-11-18T08:58:21;101151.97;;;4.13;100.00
82222;BME280;71818;52.352;10.912;2023-11-18T09:00:52;101154.41;;;4.44;100.00
82222;BME280;71818;52.352;10.912;2023-11-18T09:03:28;101150.38;;;5.29;100.00
82222;BME280;71818;52.352;10.912;2023-11-18T09:05:57;101153.03;;;5.51;100.00
82222;BME280;71818;52.352;10.912;2023-11-18T09:10:50;101152.94;;;5.30;100.00
82222;BME280;71818;52.352;10.912;2023-11-18T09:13:22;101162.44;;;5.34;100.00
82222;BME280;71818;52.352;10.912;2023-11-18T09:15:50;101164.19;;;4.89;100.00
82222;BME280;71818;52.352;10.912;2023-11-18T09:18:16;101169.06;;;4.99;100.00
82222;BME280;71818;52.352;10.912;2023-11-18T09:20:43;101172.09;;;5.12;100.00
82222;BME280;71818;52.352;10.912;2023-11-18T09:23:09;101176.09;;;4.99;100.00
82222;BME280;71818;52.352;10.912;2023-11-18T09:25:34;101171.75;;;5.21;100.00
82222;BME280;71818;52.352;10.912;2023-11-18T09:28:01;101170.34;;;4.88;100.00
82222;BME280;71818;52.352;10.912;2023-11-18T09:30:28;101176.50;;;4.38;100.00
82222;BME280;71818;52.352;10.912;2023-11-18T09:32:54;101176.25;;;4.21;100.00
82222;BME280;71818;52.352;10.912;2023-11-18T09:35:20;101172.97;;;4.39;100.00
82222;BME280;71818;52.352;10.912;2023-11-18T09:37:46;101163.25;;;4.66;100.00
82222;BME280;71818;52.352;10.912;2023-11-18T09:40:16;101153.22;;;4.77;100.00
82222;BME280;71818;52.352;10.912;2023-11-18T09:42:43;101158.19;;;4.85;100.00
82222;BME280;71818;52.352;10.912;2023-11-18T09:45:09;101156.16;;;4.43;100.00
82222;BME280;71818;52.352;10.912;2023-11-18T09:47:45;101148.59;;;4.59;100.00
82222;BME280;71818;52.352;10.912;2023-11-18T09:50:17;101153.41;;;4.71;100.00
82222;BME280;71818;52.352;10.912;2023-11-18T09:52:48;101149.81;;;4.74;100.00
82222;BME280;71818;52.352;10.912;2023-11-18T09:55:35;101147.16;;;4.75;100.00
82222;BME280;71818;52.352;10.912;2023-11-18T09:58:09;101157.91;;;4.93;100.00
82222;BME280;71818;52.352;10.912;2023-11-18T10:00:39;101150.47;;;4.80;100.00
82222;BME280;71818;52.352;10.912;2023-11-18T10:03:07;101151.44;;;4.78;100.00
82222;BME280;71818;52.352;10.912;2023-11-18T10:05:41;101152.88;;;5.10;100.00
82222;BME280;71818;52.352;10.912;2023-11-18T10:08:07;101150.97;;;5.14;100.00
82222;BME280;71818;52.352;10.912;2023-11-18T10:10:33;101150.13;;;5.13;100.00
82222;BME280;71818;52.352;10.912;2023-11-18T10:13:03;101145.38;;;4.99;100.00
82222;BME280;71818;52.352;10.912;2023-11-18T10:15:34;101142.41;;;5.08;100.00
82222;BME280;71818;52.352;10.912;2023-11-18T10:18:02;101141.75;;;5.25;100.00
82222;BME280;71818;52.352;10.912;2023-11-18T10:20:50;101143.19;;;5.56;100.00
82222;BME280;71818;52.352;10.912;2023-11-18T10:23:20;101136.78;;;5.61;100.00
82222;BME280;71818;52.352;10.912;2023-11-18T10:30:56;101137.88;;;5.34;100.00
82222;BME280;71818;52.352;10.912;2023-11-18T10:33:24;101137.06;;;5.55;100.00
82222;BME280;71818;52.352;10.912;2023-11-18T10:35:56;101126.38;;;5.58;100.00
82222;BME280;71818;52.352;10.912;2023-11-18T10:38:22;101129.94;;;5.57;100.00
82222;BME280;71818;52.352;10.912;2023-11-18T10:40:55;101129.03;;;5.58;100.00
82222;BME280;71818;52.352;10.912;2023-11-18T10:43:21;101114.97;;;5.36;100.00
82222;BME280;71818;52.352;10.912;2023-11-18T10:46:07;101103.00;;;5.29;100.00
82222;BME280;71818;52.352;10.912;2023-11-18T10:48:40;101101.09;;;5.32;100.00
82222;BME280;71818;52.352;10.912;2023-11-18T10:51:13;101097.72;;;5.51;100.00
82222;BME280;71818;52.352;10.912;2023-11-18T10:53:40;101103.66;;;5.56;100.00
82222;BME280;71818;52.352;10.912;2023-11-18T10:56:18;101096.00;;;5.50;100.00
82222;BME280;71818;52.352;10.912;2023-11-18T10:58:45;101095.28;;;5.68;100.00
82222;BME280;71818;52.352;10.912;2023-11-18T11:01:11;101090.63;;;5.53;100.00
82222;BME280;71818;52.352;10.912;2023-11-18T11:03:53;101089.72;;;5.54;100.00
82222;BME280;71818;52.352;10.912;2023-11-18T11:06:25;101082.59;;;5.34;100.00
82222;BME280;71818;52.352;10.912;2023-11-18T11:08:52;101094.25;;;5.28;100.00
82222;BME280;71818;52.352;10.912;2023-11-18T11:11:22;101083.13;;;5.20;100.00
82222;BME280;71818;52.352;10.912;2023-11-18T11:14:00;101078.97;;;5.58;100.00
82222;BME280;71818;52.352;10.912;2023-11-18T11:16:37;101071.81;;;5.62;100.00
82222;BME280;71818;52.352;10.912;2023-11-18T11:19:33;101070.63;;;5.69;98.87
82222;BME280;71818;52.352;10.912;2023-11-18T11:22:05;101067.78;;;5.95;96.73
82222;BME280;71818;52.352;10.912;2023-11-18T11:28:11;101063.00;;;6.44;95.12
82222;BME280;71818;52.352;10.912;2023-11-18T11:30:44;101059.44;;;6.45;95.11
82222;BME280;71818;52.352;10.912;2023-11-18T11:35:56;101049.09;;;6.41;95.35
82222;BME280;71818;52.352;10.912;2023-11-18T11:38:25;101050.13;;;6.18;93.83
82222;BME280;71818;52.352;10.912;2023-11-18T11:40:54;101044.41;;;6.47;93.90
82222;BME280;71818;52.352;10.912;2023-11-18T11:43:20;101033.63;;;6.52;94.13
82222;BME280;71818;52.352;10.912;2023-11-18T11:45:53;101043.00;;;6.59;93.79
82222;BME280;71818;52.352;10.912;2023-11-18T11:48:23;101045.84;;;5.95;97.06
82222;BME280;71818;52.352;10.912;2023-11-18T11:54:04;101034.63;;;5.48;100.00
82222;BME280;71818;52.352;10.912;2023-11-18T11:56:46;101025.75;;;5.50;100.00
82222;BME280;71818;52.352;10.912;2023-11-18T11:59:15;101032.09;;;5.24;100.00
82222;BME280;71818;52.352;10.912;2023-11-18T12:01:41;101032.47;;;5.15;100.00
82222;BME280;71818;52.352;10.912;2023-11-18T12:04:12;101034.00;;;5.21;100.00
82222;BME280;71818;52.352;10.912;2023-11-18T12:06:47;101032.84;;;5.48;100.00
82222;BME280;71818;52.352;10.912;2023-11-18T12:09:19;101031.28;;;5.64;100.00
82222;BME280;71818;52.352;10.912;2023-11-18T12:11:45;101026.81;;;5.46;100.00
82222;BME280;71818;52.352;10.912;2023-11-18T12:14:14;101021.59;;;5.45;100.00
82222;BME280;71818;52.352;10.912;2023-11-18T12:17:08;101013.91;;;5.40;100.00
82222;BME280;71818;52.352;10.912;2023-11-18T12:19:39;101000.53;;;5.24;100.00
82222;BME280;71818;52.352;10.912;2023-11-18T12:22:15;100991.75;;;5.02;100.00
82222;BME280;71818;52.352;10.912;2023-11-18T12:35:25;100956.34;;;5.10;100.00
82222;BME280;71818;52.352;10.912;2023-11-18T12:41:03;100969.94;;;5.20;100.00
82222;BME280;71818;52.352;10.912;2023-11-18T12:43:49;100968.22;;;5.21;100.00
82222;BME280;71818;52.352;10.912;2023-11-18T12:49:10;100959.69;;;5.14;100.00
82222;BME280;71818;52.352;10.912;2023-11-18T12:51:42;100963.72;;;5.23;100.00
82222;BME280;71818;52.352;10.912;2023-11-18T12:54:14;100971.63;;;5.23;100.00
82222;BME280;71818;52.352;10.912;2023-11-18T12:56:41;100969.16;;;5.18;100.00
82222;BME280;71818;52.352;10.912;2023-11-18T12:59:16;100961.69;;;5.29;100.00
82222;BME280;71818;52.352;10.912;2023-11-18T13:01:52;100954.72;;;5.28;100.00
82222;BME280;71818;52.352;10.912;2023-11-18T13:04:27;100962.41;;;5.33;100.00
82222;BME280;71818;52.352;10.912;2023-11-18T13:06:53;100967.44;;;5.17;100.00
82222;BME280;71818;52.352;10.912;2023-11-18T13:09:21;100954.44;;;5.14;100.00
82222;BME280;71818;52.352;10.912;2023-11-18T13:11:55;100951.50;;;5.22;100.00
82222;BME280;71818;52.352;10.912;2023-11-18T13:14:27;100949.03;;;5.17;100.00
82222;BME280;71818;52.352;10.912;2023-11-18T13:16:57;100953.03;;;5.05;100.00
82222;BME280;71818;52.352;10.912;2023-11-18T13:19:26;100958.34;;;5.04;100.00
82222;BME280;71818;52.352;10.912;2023-11-18T13:21:59;100946.78;;;5.08;100.00